Time;durP1;ratioP1;P1;durP2;ratioP2;P2;SDS_P1;SDS_P2;PMS_P1;PMS_P2;Temp;Humidity;BMP_temperature;BMP_pressure;BME280_temperature;BME280_humidity;BME280_pressure;Samples;Min_cycle;Max_cycle;Signal;HPM_P1;HPM_P2
2021/05/26 00:00:26;;;;;;;;;;;;;;;;;;5062672;28;19924;-68
2021/05/26 00:02:52;;;;;;;;;;;;;;;;;;5061519;28;20392;-67
2021/05/26 00:05:19;;;;;;;;;;;;;;;;;;5057958;28;19925;-68
2021/05/26 00:07:45;;;;;;;;;;;;;;;;;;5060528;28;20385;-67
2021/05/26 00:10:12;;;;;;;;;;;;;;;;;;5060946;28;19935;-67
2021/05/26 00:12:38;;;;;;;;;;;;;;;;;;5059245;28;19931;-69
2021/05/26 00:15:05;;;;;;;;;;;;;;;;;;5052186;28;19931;-69
2021/05/26 00:17:31;;;;;;;;;;;;;;;;;;5054247;28;20311;-68
2021/05/26 00:19:58;;;;;;;;;;;;;;;;;;5058115;28;19980;-69
2021/05/26 00:22:25;;;;;;;;;;;;;;;;;;5051514;28;20388;-68
2021/05/26 00:24:51;;;;;;;;;;;;;;;;;;5061075;28;19960;-68
2021/05/26 00:27:18;;;;;;;;;;;;;;;;;;5060814;28;19929;-69
2021/05/26 00:29:46;;;;;;;;;;;;;;;;;;5056643;28;19932;-69
2021/05/26 00:32:12;;;;;;;;;;;;;;;;;;5051608;28;19925;-68
2021/05/26 00:34:39;;;;;;;;;;;;;;;;;;5059607;28;20024;-67
2021/05/26 00:37:05;;;;;;;;;;;;;;;;;;5062669;28;19931;-70
2021/05/26 00:39:32;;;;;;;;;;;;;;;;;;5061717;28;20332;-68
2021/05/26 00:41:58;;;;;;;;;;;;;;;;;;5060604;28;20303;-68
2021/05/26 00:44:25;;;;;;;;;;;;;;;;;;5057260;28;20015;-69
2021/05/26 00:46:51;;;;;;;;;;;;;;;;;;5058294;28;19928;-69
2021/05/26 00:49:17;;;;;;;;;;;;;;;;;;5059447;28;19924;-69
2021/05/26 00:51:44;;;;;;;;;;;;;;;;;;5053873;28;19974;-69
2021/05/26 00:54:10;;;;;;;;;;;;;;;;;;5054892;28;19924;-70
2021/05/26 00:56:37;;;;;;;;;;;;;;;;;;5058658;28;20399;-70
2021/05/26 00:59:03;;;;;;;;;;;;;;;;;;5054718;28;20453;-68
2021/05/26 01:01:30;;;;;;;;;;;;;;;;;;5061308;28;19924;-69
2021/05/26 01:03:56;;;;;;;;;;;;;;;;;;5061869;28;20015;-69
2021/05/26 01:06:23;;;;;;;;;;;;;;;;;;5057848;28;19947;-69
2021/05/26 01:08:49;;;;;;;;;;;;;;;;;;5062174;28;20289;-68
2021/05/26 01:11:15;;;;;;;;;;;;;;;;;;5055658;28;19947;-69
2021/05/26 01:13:42;;;;;;;;;;;;;;;;;;5059790;28;19933;-69
2021/05/26 01:16:08;;;;;;;;;;;;;;;;;;5063285;28;19925;-69
2021/05/26 01:18:35;;;;;;;;;;;;;;;;;;5068163;28;19924;-69
2021/05/26 01:21:02;;;;;;;;;;;;;;;;;;5066964;28;19928;-69
2021/05/26 01:23:28;;;;;;;;;;;;;;;;;;5055057;28;19932;-68
2021/05/26 01:25:54;;;;;;;;;;;;;;;;;;5071533;28;20023;-68
2021/05/26 01:28:21;;;;;;;;;;;;;;;;;;5065051;28;19925;-68
2021/05/26 01:30:47;;;;;;;;;;;;;;;;;;5055604;28;19939;-68
2021/05/26 01:33:14;;;;;;;;;;;;;;;;;;5071509;28;19924;-69
2021/05/26 01:35:40;;;;;;;;;;;;;;;;;;5057657;28;19924;-69
2021/05/26 01:38:07;;;;;;;;;;;;;;;;;;5054402;28;19928;-69
2021/05/26 01:40:33;;;;;;;;;;;;;;;;;;5057596;28;19924;-69
2021/05/26 01:42:59;;;;;;;;;;;;;;;;;;5058151;28;19931;-68
2021/05/26 01:45:26;;;;;;;;;;;;;;;;;;5069429;28;19969;-69
2021/05/26 01:47:52;;;;;;;;;;;;;;;;;;5068958;28;20450;-69
2021/05/26 01:50:22;;;;;;;;;;;;;;;;;;5058365;28;20424;-69
2021/05/26 01:52:48;;;;;;;;;;;;;;;;;;5061617;28;19929;-69
2021/05/26 01:55:15;;;;;;;;;;;;;;;;;;5061190;28;19931;-69
2021/05/26 01:57:43;;;;;;;;;;;;;;;;;;5054661;28;20015;-69
2021/05/26 02:00:10;;;;;;;;;;;;;;;;;;5068829;28;20111;-69
2021/05/26 02:02:36;;;;;;;;;;;;;;;;;;5060709;28;20070;-69
2021/05/26 02:05:02;;;;;;;;;;;;;;;;;;5073575;28;19946;-68
2021/05/26 02:07:29;;;;;;;;;;;;;;;;;;5059340;28;20305;-68
2021/05/26 02:09:55;;;;;;;;;;;;;;;;;;5060939;28;19925;-69
2021/05/26 02:12:21;;;;;;;;;;;;;;;;;;5054745;28;20381;-69
2021/05/26 02:14:48;;;;;;;;;;;;;;;;;;5064762;28;19928;-70
2021/05/26 02:17:14;;;;;;;;;;;;;;;;;;5058940;28;19931;-68
2021/05/26 02:19:41;;;;;;;;;;;;;;;;;;5058131;28;19970;-68
2021/05/26 02:22:07;;;;;;;;;;;;;;;;;;5054435;28;19925;-68
2021/05/26 02:24:34;;;;;;;;;;;;;;;;;;5062250;28;19933;-69
2021/05/26 02:27:00;;;;;;;;;;;;;;;;;;5057375;28;19924;-69
2021/05/26 02:29:26;;;;;;;;;;;;;;;;;;5056579;28;19925;-69
2021/05/26 02:31:53;;;;;;;;;;;;;;;;;;5059684;28;19930;-68
2021/05/26 02:34:19;;;;;;;;;;;;;;;;;;5055145;28;19986;-70
2021/05/26 02:36:46;;;;;;;;;;;;;;;;;;5062668;28;20403;-68
2021/05/26 02:39:12;;;;;;;;;;;;;;;;;;5075388;22;19943;-67
2021/05/26 02:41:39;;;;;;;;;;;;;;;;;;5070484;28;19938;-67
2021/05/26 02:44:05;;;;;;;;;;;;;;;;;;5068550;28;19924;-67
2021/05/26 02:46:31;;;;;;;;;;;;;;;;;;5073483;28;19924;-67
2021/05/26 02:48:58;;;;;;;;;;;;;;;;;;5064273;28;19948;-67
2021/05/26 02:51:24;;;;;;;;;;;;;;;;;;5051479;28;19925;-68
2021/05/26 02:53:51;;;;;;;;;;;;;;;;;;5053037;28;19931;-67
2021/05/26 02:56:17;;;;;;;;;;;;;;;;;;5052151;28;19933;-67
2021/05/26 02:58:44;;;;;;;;;;;;;;;;;;5052986;28;20418;-68
2021/05/26 03:01:10;;;;;;;;;;;;;;;;;;5051653;28;20412;-68
2021/05/26 03:03:36;;;;;;;;;;;;;;;;;;5051607;28;20273;-68
2021/05/26 03:06:03;;;;;;;;;;;;;;;;;;5053115;28;20023;-69
2021/05/26 03:08:29;;;;;;;;;;;;;;;;;;5049202;28;19939;-68
2021/05/26 03:10:57;;;;;;;;;;;;;;;;;;5052158;28;19925;-69
2021/05/26 03:13:24;;;;;;;;;;;;;;;;;;5052746;28;19947;-68
2021/05/26 03:15:50;;;;;;;;;;;;;;;;;;5052823;28;19947;-69
2021/05/26 03:18:17;;;;;;;;;;;;;;;;;;5051891;28;19950;-69
2021/05/26 03:20:43;;;;;;;;;;;;;;;;;;5052888;28;19967;-68
2021/05/26 03:23:10;;;;;;;;;;;;;;;;;;5051361;28;19976;-68
2021/05/26 03:25:36;;;;;;;;;;;;;;;;;;5052308;28;20448;-69
2021/05/26 03:28:03;;;;;;;;;;;;;;;;;;5052002;28;20385;-68
2021/05/26 03:30:29;;;;;;;;;;;;;;;;;;5051897;28;20381;-68
2021/05/26 03:32:55;;;;;;;;;;;;;;;;;;5052206;28;19950;-69
2021/05/26 03:35:22;;;;;;;;;;;;;;;;;;5052263;28;19925;-69
2021/05/26 03:37:48;;;;;;;;;;;;;;;;;;5047163;28;19925;-68
2021/05/26 03:40:15;;;;;;;;;;;;;;;;;;5051494;28;20448;-68
2021/05/26 03:42:41;;;;;;;;;;;;;;;;;;5051990;28;20015;-68
2021/05/26 03:45:08;;;;;;;;;;;;;;;;;;5052239;28;19931;-68
2021/05/26 03:47:34;;;;;;;;;;;;;;;;;;5051366;28;19925;-71
2021/05/26 03:50:01;;;;;;;;;;;;;;;;;;5050841;28;19925;-68
2021/05/26 03:52:27;;;;;;;;;;;;;;;;;;5044287;28;19928;-68
2021/05/26 03:54:54;;;;;;;;;;;;;;;;;;5051071;28;19931;-68
2021/05/26 03:57:20;;;;;;;;;;;;;;;;;;5051334;28;19924;-69
2021/05/26 03:59:47;;;;;;;;;;;;;;;;;;5051161;28;19924;-68
2021/05/26 04:02:13;;;;;;;;;;;;;;;;;;5051840;28;20277;-68
2021/05/26 04:04:41;;;;;;;;;;;;;;;;;;5051337;28;20019;-67
2021/05/26 04:07:07;;;;;;;;;;;;;;;;;;5049630;28;20363;-68
2021/05/26 04:09:34;;;;;;;;;;;;;;;;;;5050908;28;19925;-68
2021/05/26 04:12:00;;;;;;;;;;;;;;;;;;5051366;28;20390;-68
2021/05/26 04:14:27;;;;;;;;;;;;;;;;;;5051646;28;20313;-68
2021/05/26 04:16:53;;;;;;;;;;;;;;;;;;5051506;28;19933;-68
2021/05/26 04:19:20;;;;;;;;;;;;;;;;;;5049277;28;19929;-68
2021/05/26 04:21:46;;;;;;;;;;;;;;;;;;5051295;28;19924;-68
2021/05/26 04:24:13;;;;;;;;;;;;;;;;;;5050796;28;19951;-68
2021/05/26 04:26:39;;;;;;;;;;;;;;;;;;5050407;28;19929;-68
2021/05/26 04:29:07;;;;;;;;;;;;;;;;;;5050479;28;19963;-67
2021/05/26 04:31:34;;;;;;;;;;;;;;;;;;5050817;28;19932;-68
2021/05/26 04:34:00;;;;;;;;;;;;;;;;;;5050363;28;19952;-72
2021/05/26 04:36:26;;;;;;;;;;;;;;;;;;5051323;28;19924;-67
2021/05/26 04:38:53;;;;;;;;;;;;;;;;;;5050956;28;20339;-67
2021/05/26 04:41:19;;;;;;;;;;;;;;;;;;5054735;28;20315;-68
2021/05/26 04:43:46;;;;;;;;;;;;;;;;;;5056031;28;19924;-68
2021/05/26 04:46:12;;;;;;;;;;;;;;;;;;5055588;28;19931;-68
2021/05/26 04:48:39;;;;;;;;;;;;;;;;;;5055998;28;20019;-69
2021/05/26 04:51:05;;;;;;;;;;;;;;;;;;5053190;28;19950;-69
2021/05/26 04:53:32;;;;;;;;;;;;;;;;;;5048851;28;19948;-68
2021/05/26 04:55:58;;;;;;;;;;;;;;;;;;5055667;28;20352;-68
2021/05/26 04:58:24;;;;;;;;;;;;;;;;;;5054261;28;19955;-68
2021/05/26 05:00:51;;;;;;;;;;;;;;;;;;5055674;28;19928;-68
2021/05/26 05:03:17;;;;;;;;;;;;;;;;;;5054442;28;19931;-68
2021/05/26 05:05:44;;;;;;;;;;;;;;;;;;5055124;28;19974;-67
2021/05/26 05:08:10;;;;;;;;;;;;;;;;;;5054768;28;20215;-68
2021/05/26 05:10:37;;;;;;;;;;;;;;;;;;5052117;28;19931;-69
2021/05/26 05:13:03;;;;;;;;;;;;;;;;;;5054148;28;19925;-69
2021/05/26 05:15:30;;;;;;;;;;;;;;;;;;5054191;28;19924;-68
2021/05/26 05:17:56;;;;;;;;;;;;;;;;;;5054312;28;19960;-69
2021/05/26 05:20:23;;;;;;;;;;;;;;;;;;5051322;28;20363;-69
2021/05/26 05:22:49;;;;;;;;;;;;;;;;;;5054008;28;19929;-68
2021/05/26 05:25:16;;;;;;;;;;;;;;;;;;5053481;28;20023;-68
2021/05/26 05:27:42;;;;;;;;;;;;;;;;;;5052419;28;19996;-68
2021/05/26 05:30:08;;;;;;;;;;;;;;;;;;5049141;28;20032;-69
2021/05/26 05:32:35;;;;;;;;;;;;;;;;;;5053594;28;19947;-69
2021/05/26 05:35:01;;;;;;;;;;;;;;;;;;5053223;28;19925;-68
2021/05/26 05:37:28;;;;;;;;;;;;;;;;;;5052843;28;20297;-69
2021/05/26 05:39:54;;;;;;;;;;;;;;;;;;5053248;28;20327;-68
2021/05/26 05:42:21;;;;;;;;;;;;;;;;;;5056850;28;20037;-68
2021/05/26 05:44:47;;;;;;;;;;;;;;;;;;5054823;28;19993;-67
2021/05/26 05:47:14;;;;;;;;;;;;;;;;;;5054190;28;19950;-68
2021/05/26 05:49:40;;;;;;;;;;;;;;;;;;5054341;28;19985;-67
2021/05/26 05:52:08;;;;;;;;;;;;;;;;;;5053955;28;19932;-69
2021/05/26 05:54:35;;;;;;;;;;;;;;;;;;5054975;28;20446;-69
2021/05/26 05:57:01;;;;;;;;;;;;;;;;;;5054989;28;20358;-69
2021/05/26 05:59:28;;;;;;;;;;;;;;;;;;5052525;28;20305;-69
2021/05/26 06:01:54;;;;;;;;;;;;;;;;;;5054271;28;19932;-69
2021/05/26 06:04:20;;;;;;;;;;;;;;;;;;5054013;28;19925;-67
2021/05/26 06:06:47;;;;;;;;;;;;;;;;;;5053522;28;19925;-68
2021/05/26 06:09:13;;;;;;;;;;;;;;;;;;5055176;28;19931;-68
2021/05/26 06:11:40;;;;;;;;;;;;;;;;;;5071051;28;19929;-67
2021/05/26 06:14:07;;;;;;;;;;;;;;;;;;5067587;28;19936;-68
2021/05/26 06:16:34;;;;;;;;;;;;;;;;;;5060404;28;20282;-68
2021/05/26 06:19:00;;;;;;;;;;;;;;;;;;5054017;28;20583;-68
2021/05/26 06:21:27;;;;;;;;;;;;;;;;;;5056681;28;19932;-69
2021/05/26 06:23:53;;;;;;;;;;;;;;;;;;5053983;28;19929;-69
2021/05/26 06:26:20;;;;;;;;;;;;;;;;;;5055122;28;19933;-69
2021/05/26 06:28:46;;;;;;;;;;;;;;;;;;5053968;28;19932;-68
2021/05/26 06:31:13;;;;;;;;;;;;;;;;;;5051525;28;19929;-68
2021/05/26 06:33:42;;;;;;;;;;;;;;;;;;5053850;28;20398;-67
2021/05/26 06:36:08;;;;;;;;;;;;;;;;;;5049412;28;19928;-68
2021/05/26 06:38:35;;;;;;;;;;;;;;;;;;5049583;28;19924;-68
2021/05/26 06:41:01;;;;;;;;;;;;;;;;;;5052845;28;19932;-68
2021/05/26 06:43:28;;;;;;;;;;;;;;;;;;5050786;28;19947;-68
2021/05/26 06:45:54;;;;;;;;;;;;;;;;;;5049445;28;19925;-67
2021/05/26 06:48:21;;;;;;;;;;;;;;;;;;5047183;28;19931;-68
2021/05/26 06:50:47;;;;;;;;;;;;;;;;;;5047145;28;20311;-67
2021/05/26 06:53:13;;;;;;;;;;;;;;;;;;5051103;28;19925;-67
2021/05/26 06:55:40;;;;;;;;;;;;;;;;;;5050588;28;19925;-67
2021/05/26 06:58:06;;;;;;;;;;;;;;;;;;5048190;28;20274;-67
2021/05/26 07:00:34;;;;;;;;;;;;;;;;;;5048674;28;20445;-68
2021/05/26 07:03:00;;;;;;;;;;;;;;;;;;5048321;28;20015;-69
2021/05/26 07:05:27;;;;;;;;;;;;;;;;;;5051717;28;19929;-67
2021/05/26 07:07:54;;;;;;;;;;;;;;;;;;5047749;28;20466;-67
2021/05/26 07:10:20;;;;;;;;;;;;;;;;;;5050084;28;19924;-67
2021/05/26 07:12:48;;;;;;;;;;;;;;;;;;5050091;28;20463;-68
2021/05/26 07:15:14;;;;;;;;;;;;;;;;;;5048948;28;19981;-67
2021/05/26 07:17:41;;;;;;;;;;;;;;;;;;5048212;28;20003;-67
2021/05/26 07:20:07;;;;;;;;;;;;;;;;;;5046945;28;19979;-68
2021/05/26 07:22:34;;;;;;;;;;;;;;;;;;5047683;28;19926;-68
2021/05/26 07:25:00;;;;;;;;;;;;;;;;;;5050267;28;19925;-67
2021/05/26 07:27:27;;;;;;;;;;;;;;;;;;5046871;28;19937;-67
2021/05/26 07:29:53;;;;;;;;;;;;;;;;;;5050796;28;19924;-67
2021/05/26 07:32:20;;;;;;;;;;;;;;;;;;5048795;28;20365;-67
2021/05/26 07:34:46;;;;;;;;;;;;;;;;;;5049585;28;19932;-68
2021/05/26 07:37:12;;;;;;;;;;;;;;;;;;5048348;28;20147;-67
2021/05/26 07:39:39;;;;;;;;;;;;;;;;;;5050236;28;19973;-68
2021/05/26 07:42:05;;;;;;;;;;;;;;;;;;5051522;28;19924;-68
2021/05/26 07:44:32;;;;;;;;;;;;;;;;;;5048152;28;19979;-67
2021/05/26 07:46:58;;;;;;;;;;;;;;;;;;5049809;28;19935;-67
2021/05/26 07:49:25;;;;;;;;;;;;;;;;;;5046047;28;19929;-67
2021/05/26 07:51:52;;;;;;;;;;;;;;;;;;5044515;28;20397;-67
2021/05/26 07:54:18;;;;;;;;;;;;;;;;;;5049186;28;19932;-67
2021/05/26 07:56:45;;;;;;;;;;;;;;;;;;5049912;28;20002;-67
2021/05/26 07:59:11;;;;;;;;;;;;;;;;;;5048430;28;19936;-65
2021/05/26 08:01:38;;;;;;;;;;;;;;;;;;5047521;28;20051;-68
2021/05/26 08:04:04;;;;;;;;;;;;;;;;;;5049855;28;20296;-68
2021/05/26 08:06:31;;;;;;;;;;;;;;;;;;5048158;28;19924;-68
2021/05/26 08:08:57;;;;;;;;;;;;;;;;;;5049222;28;19924;-68
2021/05/26 08:11:24;;;;;;;;;;;;;;;;;;5047756;28;19929;-68
2021/05/26 08:13:52;;;;;;;;;;;;;;;;;;5047457;28;20316;-67
2021/05/26 08:16:18;;;;;;;;;;;;;;;;;;5047910;28;19971;-68
2021/05/26 08:18:45;;;;;;;;;;;;;;;;;;5049025;28;19933;-68
2021/05/26 08:21:11;;;;;;;;;;;;;;;;;;5048087;28;19944;-68
2021/05/26 08:23:38;;;;;;;;;;;;;;;;;;5046490;28;19925;-68
2021/05/26 08:26:07;;;;;;;;;;;;;;;;;;5049355;28;20334;-68
2021/05/26 08:28:34;;;;;;;;;;;;;;;;;;5049141;28;20017;-68
2021/05/26 08:31:00;;;;;;;;;;;;;;;;;;5044645;28;20292;-68
2021/05/26 08:33:27;;;;;;;;;;;;;;;;;;5047443;28;19925;-69
2021/05/26 08:35:53;;;;;;;;;;;;;;;;;;5045066;28;19925;-68
2021/05/26 08:38:20;;;;;;;;;;;;;;;;;;5048486;28;20284;-68
2021/05/26 08:40:46;;;;;;;;;;;;;;;;;;5041258;28;19968;-69
2021/05/26 08:43:13;;;;;;;;;;;;;;;;;;5053068;28;19932;-69
2021/05/26 08:45:39;;;;;;;;;;;;;;;;;;5045171;28;19968;-67
2021/05/26 08:48:06;;;;;;;;;;;;;;;;;;5054192;22;20410;-70
2021/05/26 08:50:32;;;;;;;;;;;;;;;;;;5046836;28;19932;-69
2021/05/26 08:52:59;;;;;;;;;;;;;;;;;;5042911;28;19924;-70
2021/05/26 08:55:25;;;;;;;;;;;;;;;;;;5042885;28;20393;-70
2021/05/26 08:57:52;;;;;;;;;;;;;;;;;;5038152;28;19931;-68
2021/05/26 09:00:18;;;;;;;;;;;;;;;;;;5043609;28;19980;-69
2021/05/26 09:02:45;;;;;;;;;;;;;;;;;;5038158;28;19925;-68
2021/05/26 09:05:11;;;;;;;;;;;;;;;;;;5039436;28;20015;-69
2021/05/26 09:07:38;;;;;;;;;;;;;;;;;;5034739;28;19925;-69
2021/05/26 09:10:06;;;;;;;;;;;;;;;;;;5040050;28;19939;-69
2021/05/26 09:12:32;;;;;;;;;;;;;;;;;;5041424;28;19929;-70
2021/05/26 09:14:59;;;;;;;;;;;;;;;;;;5041508;28;20387;-72
2021/05/26 09:17:25;;;;;;;;;;;;;;;;;;5045494;28;19924;-71
2021/05/26 09:19:52;;;;;;;;;;;;;;;;;;5043761;28;19925;-69
2021/05/26 09:22:20;;;;;;;;;;;;;;;;;;5040019;28;19925;-69
2021/05/26 09:24:47;;;;;;;;;;;;;;;;;;5043225;28;19978;-69
2021/05/26 09:27:14;;;;;;;;;;;;;;;;;;5043306;28;19931;-70
2021/05/26 09:29:41;;;;;;;;;;;;;;;;;;5045087;28;19925;-69
2021/05/26 09:32:07;;;;;;;;;;;;;;;;;;5044859;28;19933;-70
2021/05/26 09:34:34;;;;;;;;;;;;;;;;;;5044187;28;19929;-69
2021/05/26 09:37:01;;;;;;;;;;;;;;;;;;5041435;28;19978;-69
2021/05/26 09:39:27;;;;;;;;;;;;;;;;;;5043608;28;19953;-69
2021/05/26 09:41:54;;;;;;;;;;;;;;;;;;5043348;28;20308;-69
2021/05/26 09:44:21;;;;;;;;;;;;;;;;;;5040713;28;19925;-69
2021/05/26 09:46:47;;;;;;;;;;;;;;;;;;5037554;28;19925;-69
2021/05/26 09:49:16;;;;;;;;;;;;;;;;;;5044583;28;20339;-70
2021/05/26 09:51:42;;;;;;;;;;;;;;;;;;5049297;28;19929;-70
2021/05/26 09:54:09;;;;;;;;;;;;;;;;;;5045484;28;19928;-70
2021/05/26 09:56:43;;;;;;;;;;;;;;;;;;5046236;28;19936;-70
2021/05/26 09:59:10;;;;;;;;;;;;;;;;;;5042509;28;19979;-70
2021/05/26 10:01:37;;;;;;;;;;;;;;;;;;5038211;28;20456;-69
2021/05/26 10:04:03;;;;;;;;;;;;;;;;;;5039013;28;20145;-71
2021/05/26 10:06:30;;;;;;;;;;;;;;;;;;5043697;28;19948;-70
2021/05/26 10:08:56;;;;;;;;;;;;;;;;;;5043292;28;20389;-70
2021/05/26 10:11:25;;;;;;;;;;;;;;;;;;5035823;28;19940;-70
2021/05/26 10:13:51;;;;;;;;;;;;;;;;;;5044748;28;19933;-70
2021/05/26 10:16:18;;;;;;;;;;;;;;;;;;5041689;28;20384;-69
2021/05/26 10:18:44;;;;;;;;;;;;;;;;;;5040440;28;20019;-70
2021/05/26 10:21:11;;;;;;;;;;;;;;;;;;5038962;28;20021;-70
2021/05/26 10:23:37;;;;;;;;;;;;;;;;;;5031825;28;19925;-70
2021/05/26 10:26:04;;;;;;;;;;;;;;;;;;5040579;28;19925;-70
2021/05/26 10:28:31;;;;;;;;;;;;;;;;;;5039570;28;19931;-69
2021/05/26 10:30:57;;;;;;;;;;;;;;;;;;5046123;28;20012;-70
2021/05/26 10:33:24;;;;;;;;;;;;;;;;;;5043206;28;19936;-70
2021/05/26 10:35:50;;;;;;;;;;;;;;;;;;5044159;28;19925;-71
2021/05/26 10:38:17;;;;;;;;;;;;;;;;;;5033464;28;19925;-70
2021/05/26 10:40:43;;;;;;;;;;;;;;;;;;5037016;28;20015;-69
2021/05/26 10:43:10;;;;;;;;;;;;;;;;;;5040528;28;19940;-69
2021/05/26 10:45:36;;;;;;;;;;;;;;;;;;5038455;28;19932;-71
2021/05/26 10:48:03;;;;;;;;;;;;;;;;;;5038753;28;19931;-68
2021/05/26 10:50:29;;;;;;;;;;;;;;;;;;5040883;28;20362;-68
2021/05/26 10:52:56;;;;;;;;;;;;;;;;;;5045794;28;19933;-68
2021/05/26 10:55:22;;;;;;;;;;;;;;;;;;5042288;28;19964;-69
2021/05/26 10:57:49;;;;;;;;;;;;;;;;;;5043762;28;20012;-69
2021/05/26 11:00:15;;;;;;;;;;;;;;;;;;5047445;28;20011;-69
2021/05/26 11:02:42;;;;;;;;;;;;;;;;;;5041617;28;19928;-68
2021/05/26 11:05:08;;;;;;;;;;;;;;;;;;5034100;28;19925;-68
2021/05/26 11:07:36;;;;;;;;;;;;;;;;;;5041521;28;19929;-68
2021/05/26 11:10:02;;;;;;;;;;;;;;;;;;5048268;28;19925;-67
2021/05/26 11:12:29;;;;;;;;;;;;;;;;;;5039953;28;19952;-69
2021/05/26 11:14:56;;;;;;;;;;;;;;;;;;5048785;28;19928;-68
2021/05/26 11:17:23;;;;;;;;;;;;;;;;;;5048212;28;19932;-68
2021/05/26 11:19:50;;;;;;;;;;;;;;;;;;5048206;28;19921;-68
2021/05/26 11:22:18;;;;;;;;;;;;;;;;;;5035572;28;19932;-68
2021/05/26 11:24:45;;;;;;;;;;;;;;;;;;5035924;28;20328;-67
2021/05/26 11:27:11;;;;;;;;;;;;;;;;;;5047940;28;20466;-69
2021/05/26 11:29:38;;;;;;;;;;;;;;;;;;5043956;28;19925;-69
2021/05/26 11:32:05;;;;;;;;;;;;;;;;;;5040034;28;19937;-68
2021/05/26 11:34:31;;;;;;;;;;;;;;;;;;5041828;28;19928;-69
2021/05/26 11:36:58;;;;;;;;;;;;;;;;;;5044029;28;19928;-69
2021/05/26 11:39:26;;;;;;;;;;;;;;;;;;5039243;28;19929;-69
2021/05/26 11:41:53;;;;;;;;;;;;;;;;;;5036407;28;19925;-69
2021/05/26 11:44:19;;;;;;;;;;;;;;;;;;5035406;28;19925;-69
2021/05/26 11:46:46;;;;;;;;;;;;;;;;;;5037272;28;19925;-69
2021/05/26 11:49:12;;;;;;;;;;;;;;;;;;5035141;28;19928;-70
2021/05/26 11:51:39;;;;;;;;;;;;;;;;;;5042421;28;19972;-69
2021/05/26 11:54:07;;;;;;;;;;;;;;;;;;5035842;28;19933;-69
2021/05/26 11:56:34;;;;;;;;;;;;;;;;;;5037657;28;20004;-68
2021/05/26 11:59:00;;;;;;;;;;;;;;;;;;5042687;28;19925;-72
2021/05/26 12:01:27;;;;;;;;;;;;;;;;;;5041060;28;19935;-68
2021/05/26 12:03:53;;;;;;;;;;;;;;;;;;5037106;28;19925;-69
2021/05/26 12:06:21;;;;;;;;;;;;;;;;;;5032319;28;20293;-69
2021/05/26 12:08:48;;;;;;;;;;;;;;;;;;5042301;28;19975;-70
2021/05/26 12:11:14;;;;;;;;;;;;;;;;;;5045673;28;20019;-73
2021/05/26 12:13:41;;;;;;;;;;;;;;;;;;5039187;28;20440;-69
2021/05/26 12:16:08;;;;;;;;;;;;;;;;;;5040992;28;19978;-70
2021/05/26 12:18:34;;;;;;;;;;;;;;;;;;5042158;28;19940;-70
2021/05/26 12:21:01;;;;;;;;;;;;;;;;;;5041738;28;19931;-69
2021/05/26 12:23:27;;;;;;;;;;;;;;;;;;5039660;28;19960;-70
2021/05/26 12:25:54;;;;;;;;;;;;;;;;;;5040918;28;19960;-70
2021/05/26 12:28:20;;;;;;;;;;;;;;;;;;5041137;28;19925;-69
2021/05/26 12:30:47;;;;;;;;;;;;;;;;;;5041640;28;20020;-70
2021/05/26 12:33:13;;;;;;;;;;;;;;;;;;5039692;28;20295;-71
2021/05/26 12:35:40;;;;;;;;;;;;;;;;;;5038858;28;19925;-70
2021/05/26 12:38:07;;;;;;;;;;;;;;;;;;5041843;28;20438;-70
2021/05/26 12:40:36;;;;;;;;;;;;;;;;;;5039572;28;19976;-70
2021/05/26 12:43:03;;;;;;;;;;;;;;;;;;5040568;28;19925;-71
2021/05/26 12:45:30;;;;;;;;;;;;;;;;;;5041942;28;20288;-70
2021/05/26 12:47:57;;;;;;;;;;;;;;;;;;5037709;28;19925;-70
2021/05/26 12:50:24;;;;;;;;;;;;;;;;;;5040856;28;20303;-70
2021/05/26 12:52:52;;;;;;;;;;;;;;;;;;5038894;28;21766;-69
2021/05/26 12:55:19;;;;;;;;;;;;;;;;;;5040097;28;20022;-70
2021/05/26 12:57:46;;;;;;;;;;;;;;;;;;5040637;28;19925;-69
2021/05/26 13:00:12;;;;;;;;;;;;;;;;;;5040642;28;20022;-70
2021/05/26 13:02:40;;;;;;;;;;;;;;;;;;5043837;28;20409;-71
2021/05/26 13:05:06;;;;;;;;;;;;;;;;;;5042515;28;19924;-68
2021/05/26 13:07:34;;;;;;;;;;;;;;;;;;5045206;28;20322;-69
2021/05/26 13:10:00;;;;;;;;;;;;;;;;;;5045410;28;19933;-68
2021/05/26 13:12:27;;;;;;;;;;;;;;;;;;5044437;28;19931;-67
2021/05/26 13:14:56;;;;;;;;;;;;;;;;;;5044069;28;19931;-67
2021/05/26 13:22:59;;;;;;;;;;;;;;;;;;5031154;28;20024;-69
2021/05/26 13:25:27;;;;;;;;;;;;;;;;;;5044838;28;19932;-69
2021/05/26 13:27:54;;;;;;;;;;;;;;;;;;5043249;28;19929;-69
2021/05/26 13:30:20;;;;;;;;;;;;;;;;;;5046587;28;19925;-70
2021/05/26 13:32:47;;;;;;;;;;;;;;;;;;5041589;28;19978;-68
2021/05/26 13:35:13;;;;;;;;;;;;;;;;;;5045008;28;19935;-69
2021/05/26 13:37:40;;;;;;;;;;;;;;;;;;5045417;28;19929;-69
2021/05/26 13:40:06;;;;;;;;;;;;;;;;;;5042596;28;20538;-69
2021/05/26 13:42:34;;;;;;;;;;;;;;;;;;5042094;28;20301;-69
2021/05/26 13:45:09;;;;;;;;;;;;;;;;;;5045553;28;20312;-69
2021/05/26 13:47:38;;;;;;;;;;;;;;;;;;5045762;28;19960;-68
2021/05/26 13:50:04;;;;;;;;;;;;;;;;;;5043736;28;19936;-69
2021/05/26 13:52:31;;;;;;;;;;;;;;;;;;5041556;28;19925;-68
2021/05/26 13:54:57;;;;;;;;;;;;;;;;;;5042428;28;19929;-68
2021/05/26 13:57:24;;;;;;;;;;;;;;;;;;5043697;28;19935;-70
2021/05/26 13:59:50;;;;;;;;;;;;;;;;;;5046360;28;20389;-71
2021/05/26 14:02:17;;;;;;;;;;;;;;;;;;5043970;28;19933;-70
2021/05/26 14:04:43;;;;;;;;;;;;;;;;;;5042182;28;20281;-70
2021/05/26 14:07:10;;;;;;;;;;;;;;;;;;5042471;28;19925;-70
2021/05/26 14:09:36;;;;;;;;;;;;;;;;;;5043343;28;19925;-70
2021/05/26 14:12:03;;;;;;;;;;;;;;;;;;5043822;28;19964;-70
2021/05/26 14:14:30;;;;;;;;;;;;;;;;;;5037197;28;20317;-70
2021/05/26 14:16:57;;;;;;;;;;;;;;;;;;5041211;28;19970;-70
2021/05/26 14:19:23;;;;;;;;;;;;;;;;;;5042756;28;19933;-69
2021/05/26 14:21:50;;;;;;;;;;;;;;;;;;5048822;28;20023;-70
2021/05/26 14:24:16;;;;;;;;;;;;;;;;;;5042671;28;19964;-69
2021/05/26 14:26:43;;;;;;;;;;;;;;;;;;5041381;28;19935;-68
2021/05/26 14:29:09;;;;;;;;;;;;;;;;;;5042052;28;20011;-67
2021/05/26 14:31:36;;;;;;;;;;;;;;;;;;5043140;28;19925;-68
2021/05/26 14:34:03;;;;;;;;;;;;;;;;;;5046327;28;19924;-66
2021/05/26 14:36:32;;;;;;;;;;;;;;;;;;5041143;28;19932;-67
2021/05/26 14:39:00;;;;;;;;;;;;;;;;;;5045850;28;19929;-68
2021/05/26 14:41:26;;;;;;;;;;;;;;;;;;5041481;28;19925;-68
2021/05/26 14:43:53;;;;;;;;;;;;;;;;;;5042760;28;19973;-68
2021/05/26 14:46:21;;;;;;;;;;;;;;;;;;5044706;28;20344;-69
2021/05/26 14:48:47;;;;;;;;;;;;;;;;;;5093224;22;19930;-68
2021/05/26 14:51:15;;;;;;;;;;;;;;;;;;5084786;28;20380;-69
2021/05/26 14:53:42;;;;;;;;;;;;;;;;;;5089271;28;19928;-68
2021/05/26 14:56:08;;;;;;;;;;;;;;;;;;5086197;28;20358;-68
2021/05/26 14:58:34;;;;;;;;;;;;;;;;;;5087950;28;19978;-70
2021/05/26 15:01:01;;;;;;;;;;;;;;;;;;5084279;28;19924;-68
2021/05/26 15:03:27;;;;;;;;;;;;;;;;;;5089577;28;20156;-70
2021/05/26 15:05:54;;;;;;;;;;;;;;;;;;5087143;28;20359;-68
2021/05/26 15:08:22;;;;;;;;;;;;;;;;;;5083935;28;19928;-69
2021/05/26 15:10:49;;;;;;;;;;;;;;;;;;5088441;28;19931;-69
2021/05/26 15:13:16;;;;;;;;;;;;;;;;;;5087874;28;19924;-68
2021/05/26 15:15:46;;;;;;;;;;;;;;;;;;5087600;28;20314;-69
2021/05/26 15:18:12;;;;;;;;;;;;;;;;;;5084979;28;20250;-69
2021/05/26 15:20:40;;;;;;;;;;;;;;;;;;5087148;28;20390;-68
2021/05/26 15:23:06;;;;;;;;;;;;;;;;;;5086339;28;19933;-70
2021/05/26 15:25:33;;;;;;;;;;;;;;;;;;5082695;28;19974;-68
2021/05/26 15:28:02;;;;;;;;;;;;;;;;;;5083386;28;20295;-69
2021/05/26 15:30:28;;;;;;;;;;;;;;;;;;5088313;28;19928;-69
2021/05/26 15:32:56;;;;;;;;;;;;;;;;;;5085732;28;19946;-68
2021/05/26 15:35:22;;;;;;;;;;;;;;;;;;5084511;28;19924;-68
2021/05/26 15:37:49;;;;;;;;;;;;;;;;;;5088181;28;19960;-67
2021/05/26 15:40:15;;;;;;;;;;;;;;;;;;5087467;28;20231;-69
2021/05/26 15:42:42;;;;;;;;;;;;;;;;;;5086991;28;19934;-67
2021/05/26 15:45:09;;;;;;;;;;;;;;;;;;5084279;28;20018;-68
2021/05/26 15:47:35;;;;;;;;;;;;;;;;;;5085837;28;20406;-68
2021/05/26 15:50:02;;;;;;;;;;;;;;;;;;5086006;28;19963;-68
2021/05/26 15:52:28;;;;;;;;;;;;;;;;;;5091129;28;19935;-67
2021/05/26 15:54:55;;;;;;;;;;;;;;;;;;5091241;28;19931;-67
2021/05/26 15:57:21;;;;;;;;;;;;;;;;;;5084925;28;19975;-68
2021/05/26 15:59:48;;;;;;;;;;;;;;;;;;5085128;28;20008;-68
2021/05/26 16:02:14;;;;;;;;;;;;;;;;;;5087885;28;19939;-67
2021/05/26 16:04:43;;;;;;;;;;;;;;;;;;5086320;28;20315;-67
2021/05/26 16:07:09;;;;;;;;;;;;;;;;;;5088318;28;19931;-67
2021/05/26 16:09:36;;;;;;;;;;;;;;;;;;5090260;28;20015;-67
2021/05/26 16:12:04;;;;;;;;;;;;;;;;;;5091532;28;20011;-68
2021/05/26 16:14:31;;;;;;;;;;;;;;;;;;5087812;28;19925;-67
2021/05/26 16:17:02;;;;;;;;;;;;;;;;;;5088092;28;19924;-67
2021/05/26 16:19:28;;;;;;;;;;;;;;;;;;5086343;28;19935;-67
2021/05/26 16:21:55;;;;;;;;;;;;;;;;;;5089752;28;19924;-68
2021/05/26 16:24:21;;;;;;;;;;;;;;;;;;5088523;28;19982;-68
2021/05/26 16:26:48;;;;;;;;;;;;;;;;;;5092944;28;20175;-67
2021/05/26 16:29:14;;;;;;;;;;;;;;;;;;5090136;28;20037;-67
2021/05/26 16:31:41;;;;;;;;;;;;;;;;;;5091559;28;19928;-68
2021/05/26 16:34:07;;;;;;;;;;;;;;;;;;5086698;28;19925;-68
2021/05/26 16:36:34;;;;;;;;;;;;;;;;;;5091104;28;19924;-68
2021/05/26 16:39:01;;;;;;;;;;;;;;;;;;5091917;28;19994;-69
2021/05/26 16:41:27;;;;;;;;;;;;;;;;;;5090951;28;19924;-67
2021/05/26 16:43:54;;;;;;;;;;;;;;;;;;5090874;28;19970;-67
2021/05/26 16:46:20;;;;;;;;;;;;;;;;;;5086957;28;19932;-67